sensor_id;sensor_type;location;lat;lon;timestamp;P1;durP1;ratioP1;P2;durP2;ratioP2
65545;SDS011;52177;55.968;37.498;2022-12-18T19:36:59;15.57;;;9.98;;
65545;SDS011;52177;55.968;37.498;2022-12-18T19:37:30;14.48;;;8.55;;
65545;SDS011;52177;55.968;37.498;2022-12-18T19:38:00;15.82;;;9.52;;
65545;SDS011;52177;55.968;37.498;2022-12-18T19:38:31;14.52;;;8.45;;
65545;SDS011;52177;55.968;37.498;2022-12-18T19:39:05;15.40;;;8.70;;
65545;SDS011;52177;55.968;37.498;2022-12-18T19:39:41;12.70;;;8.27;;
65545;SDS011;52177;55.968;37.498;2022-12-18T19:40:12;13.98;;;8.50;;
65545;SDS011;52177;55.968;37.498;2022-12-18T19:40:42;15.10;;;9.27;;
65545;SDS011;52177;55.968;37.498;2022-12-18T19:41:13;14.98;;;9.13;;
65545;SDS011;52177;55.968;37.498;2022-12-18T19:41:45;14.60;;;8.30;;
65545;SDS011;52177;55.968;37.498;2022-12-18T19:42:15;15.23;;;9.05;;
65545;SDS011;52177;55.968;37.498;2022-12-18T19:42:46;15.48;;;9.55;;
65545;SDS011;52177;55.968;37.498;2022-12-18T19:43:16;13.07;;;7.97;;
65545;SDS011;52177;55.968;37.498;2022-12-18T19:43:47;13.70;;;8.82;;
65545;SDS011;52177;55.968;37.498;2022-12-18T19:44:18;13.43;;;8.05;;
65545;SDS011;52177;55.968;37.498;2022-12-18T19:44:49;13.70;;;9.35;;
65545;SDS011;52177;55.968;37.498;2022-12-18T19:45:19;10.23;;;7.40;;
65545;SDS011;52177;55.968;37.498;2022-12-18T19:45:53;14.43;;;8.07;;
65545;SDS011;52177;55.968;37.498;2022-12-18T19:46:24;13.65;;;8.48;;
65545;SDS011;52177;55.968;37.498;2022-12-18T19:46:54;14.32;;;7.53;;
65545;SDS011;52177;55.968;37.498;2022-12-18T19:47:24;14.07;;;8.98;;
65545;SDS011;52177;55.968;37.498;2022-12-18T19:47:55;14.00;;;8.80;;
65545;SDS011;52177;55.968;37.498;2022-12-18T19:48:25;13.75;;;8.55;;
65545;SDS011;52177;55.968;37.498;2022-12-18T19:48:55;14.88;;;7.93;;
65545;SDS011;52177;55.968;37.498;2022-12-18T19:49:28;11.95;;;8.10;;
65545;SDS011;52177;55.968;37.498;2022-12-18T19:50:00;15.00;;;8.88;;
65545;SDS011;52177;55.968;37.498;2022-12-18T19:50:31;15.63;;;8.65;;
65545;SDS011;52177;55.968;37.498;2022-12-18T19:51:06;12.32;;;7.65;;
65545;SDS011;52177;55.968;37.498;2022-12-18T19:51:41;12.75;;;7.30;;
65545;SDS011;52177;55.968;37.498;2022-12-18T19:52:11;12.15;;;8.25;;
65545;SDS011;52177;55.968;37.498;2022-12-18T19:52:42;14.68;;;8.30;;
65545;SDS011;52177;55.968;37.498;2022-12-18T19:53:12;11.18;;;7.43;;
65545;SDS011;52177;55.968;37.498;2022-12-18T19:53:43;14.82;;;9.63;;
65545;SDS011;52177;55.968;37.498;2022-12-18T19:54:14;12.13;;;7.90;;
65545;SDS011;52177;55.968;37.498;2022-12-18T19:54:44;13.02;;;8.85;;
65545;SDS011;52177;55.968;37.498;2022-12-18T19:55:16;13.48;;;7.70;;
65545;SDS011;52177;55.968;37.498;2022-12-18T19:55:46;16.15;;;8.80;;
65545;SDS011;52177;55.968;37.498;2022-12-18T19:56:17;14.88;;;8.70;;
65545;SDS011;52177;55.968;37.498;2022-12-18T19:56:50;14.88;;;9.82;;
65545;SDS011;52177;55.968;37.498;2022-12-18T19:57:21;12.98;;;8.70;;
65545;SDS011;52177;55.968;37.498;2022-12-18T19:57:52;13.98;;;9.30;;
65545;SDS011;52177;55.968;37.498;2022-12-18T19:58:22;15.05;;;9.25;;
65545;SDS011;52177;55.968;37.498;2022-12-18T19:58:53;13.10;;;8.75;;
65545;SDS011;52177;55.968;37.498;2022-12-18T19:59:23;12.95;;;8.70;;
65545;SDS011;52177;55.968;37.498;2022-12-18T19:59:54;12.88;;;8.80;;
65545;SDS011;52177;55.968;37.498;2022-12-18T20:00:24;14.93;;;8.38;;
65545;SDS011;52177;55.968;37.498;2022-12-18T20:00:55;14.70;;;9.00;;
65545;SDS011;52177;55.968;37.498;2022-12-18T20:01:26;16.52;;;10.25;;
65545;SDS011;52177;55.968;37.498;2022-12-18T20:01:58;18.20;;;9.98;;
65545;SDS011;52177;55.968;37.498;2022-12-18T20:02:28;19.42;;;10.13;;
65545;SDS011;52177;55.968;37.498;2022-12-18T20:03:00;18.15;;;9.85;;
65545;SDS011;52177;55.968;37.498;2022-12-18T20:03:31;17.42;;;9.63;;
65545;SDS011;52177;55.968;37.498;2022-12-18T20:04:02;16.77;;;9.70;;
65545;SDS011;52177;55.968;37.498;2022-12-18T20:04:32;17.75;;;10.98;;
65545;SDS011;52177;55.968;37.498;2022-12-18T20:05:07;17.33;;;10.43;;
65545;SDS011;52177;55.968;37.498;2022-12-18T20:05:39;16.70;;;9.88;;
65545;SDS011;52177;55.968;37.498;2022-12-18T20:06:13;14.23;;;9.52;;
65545;SDS011;52177;55.968;37.498;2022-12-18T20:07:03;18.85;;;10.55;;
65545;SDS011;52177;55.968;37.498;2022-12-18T20:07:34;18.88;;;10.57;;
65545;SDS011;52177;55.968;37.498;2022-12-18T20:08:04;17.83;;;10.73;;
65545;SDS011;52177;55.968;37.498;2022-12-18T20:08:35;16.60;;;10.43;;
65545;SDS011;52177;55.968;37.498;2022-12-18T20:09:05;19.23;;;11.00;;
65545;SDS011;52177;55.968;37.498;2022-12-18T20:09:36;19.30;;;11.35;;
65545;SDS011;52177;55.968;37.498;2022-12-18T20:10:07;15.10;;;9.27;;
65545;SDS011;52177;55.968;37.498;2022-12-18T20:10:42;15.68;;;8.75;;
65545;SDS011;52177;55.968;37.498;2022-12-18T20:11:17;15.10;;;9.43;;
65545;SDS011;52177;55.968;37.498;2022-12-18T20:11:48;16.13;;;9.45;;
65545;SDS011;52177;55.968;37.498;2022-12-18T20:12:18;12.75;;;8.95;;
65545;SDS011;52177;55.968;37.498;2022-12-18T20:12:48;20.70;;;10.05;;
65545;SDS011;52177;55.968;37.498;2022-12-18T20:13:19;16.15;;;8.57;;
65545;SDS011;52177;55.968;37.498;2022-12-18T20:13:49;17.15;;;10.10;;
65545;SDS011;52177;55.968;37.498;2022-12-18T20:14:20;15.90;;;9.50;;
65545;SDS011;52177;55.968;37.498;2022-12-18T20:14:50;17.15;;;9.80;;
65545;SDS011;52177;55.968;37.498;2022-12-18T20:15:21;15.43;;;9.82;;
65545;SDS011;52177;55.968;37.498;2022-12-18T20:15:51;16.58;;;9.63;;
65545;SDS011;52177;55.968;37.498;2022-12-18T20:16:21;16.20;;;9.82;;
65545;SDS011;52177;55.968;37.498;2022-12-18T20:16:52;15.80;;;9.52;;
65545;SDS011;52177;55.968;37.498;2022-12-18T20:17:22;14.30;;;9.35;;
65545;SDS011;52177;55.968;37.498;2022-12-18T20:17:53;16.30;;;10.00;;
65545;SDS011;52177;55.968;37.498;2022-12-18T20:18:23;16.35;;;10.07;;
65545;SDS011;52177;55.968;37.498;2022-12-18T20:18:54;15.30;;;10.25;;
65545;SDS011;52177;55.968;37.498;2022-12-18T20:19:25;14.38;;;10.15;;
65545;SDS011;52177;55.968;37.498;2022-12-18T20:19:56;15.48;;;9.85;;
65545;SDS011;52177;55.968;37.498;2022-12-18T20:20:26;15.85;;;9.15;;
65545;SDS011;52177;55.968;37.498;2022-12-18T20:20:56;15.88;;;9.63;;
65545;SDS011;52177;55.968;37.498;2022-12-18T20:21:27;16.08;;;9.40;;
65545;SDS011;52177;55.968;37.498;2022-12-18T20:21:57;13.55;;;8.93;;
65545;SDS011;52177;55.968;37.498;2022-12-18T20:22:27;14.95;;;9.68;;
65545;SDS011;52177;55.968;37.498;2022-12-18T20:22:58;15.85;;;9.52;;
65545;SDS011;52177;55.968;37.498;2022-12-18T20:23:28;14.20;;;9.25;;
65545;SDS011;52177;55.968;37.498;2022-12-18T20:23:59;14.63;;;9.82;;
65545;SDS011;52177;55.968;37.498;2022-12-18T20:24:30;15.77;;;9.13;;
65545;SDS011;52177;55.968;37.498;2022-12-18T20:25:01;17.25;;;9.55;;
65545;SDS011;52177;55.968;37.498;2022-12-18T20:25:31;16.67;;;9.80;;
65545;SDS011;52177;55.968;37.498;2022-12-18T20:26:02;15.77;;;9.25;;
65545;SDS011;52177;55.968;37.498;2022-12-18T20:26:32;16.13;;;10.63;;
65545;SDS011;52177;55.968;37.498;2022-12-18T20:27:03;16.80;;;9.75;;
65545;SDS011;52177;55.968;37.498;2022-12-18T20:27:33;14.90;;;8.95;;
65545;SDS011;52177;55.968;37.498;2022-12-18T20:28:04;16.17;;;8.93;;
65545;SDS011;52177;55.968;37.498;2022-12-18T20:28:34;12.60;;;8.70;;
65545;SDS011;52177;55.968;37.498;2022-12-18T20:29:05;15.73;;;9.52;;
65545;SDS011;52177;55.968;37.498;2022-12-18T20:29:35;14.48;;;8.60;;
65545;SDS011;52177;55.968;37.498;2022-12-18T20:30:06;14.70;;;8.38;;
65545;SDS011;52177;55.968;37.498;2022-12-18T20:30:37;16.90;;;9.68;;
65545;SDS011;52177;55.968;37.498;2022-12-18T20:31:07;15.98;;;8.82;;
65545;SDS011;52177;55.968;37.498;2022-12-18T20:31:38;14.88;;;9.23;;
65545;SDS011;52177;55.968;37.498;2022-12-18T20:32:08;15.65;;;9.30;;
65545;SDS011;52177;55.968;37.498;2022-12-18T20:32:39;15.32;;;9.20;;
65545;SDS011;52177;55.968;37.498;2022-12-18T20:33:09;17.25;;;9.73;;
65545;SDS011;52177;55.968;37.498;2022-12-18T20:33:39;15.35;;;8.93;;
65545;SDS011;52177;55.968;37.498;2022-12-18T20:34:10;17.63;;;10.75;;
65545;SDS011;52177;55.968;37.498;2022-12-18T20:34:41;14.43;;;9.10;;
65545;SDS011;52177;55.968;37.498;2022-12-18T20:35:11;16.95;;;9.40;;
65545;SDS011;52177;55.968;37.498;2022-12-18T20:35:41;16.27;;;9.20;;
65545;SDS011;52177;55.968;37.498;2022-12-18T20:36:13;16.33;;;10.05;;
65545;SDS011;52177;55.968;37.498;2022-12-18T20:36:45;15.02;;;9.68;;
65545;SDS011;52177;55.968;37.498;2022-12-18T20:37:15;18.60;;;11.30;;
65545;SDS011;52177;55.968;37.498;2022-12-18T20:37:45;14.70;;;9.40;;
65545;SDS011;52177;55.968;37.498;2022-12-18T20:38:16;23.20;;;12.35;;
65545;SDS011;52177;55.968;37.498;2022-12-18T20:38:46;20.40;;;11.73;;
65545;SDS011;52177;55.968;37.498;2022-12-18T20:39:16;25.48;;;14.40;;
65545;SDS011;52177;55.968;37.498;2022-12-18T20:39:47;21.60;;;12.98;;
65545;SDS011;52177;55.968;37.498;2022-12-18T20:40:17;24.40;;;14.20;;
65545;SDS011;52177;55.968;37.498;2022-12-18T20:40:47;23.40;;;12.77;;
65545;SDS011;52177;55.968;37.498;2022-12-18T20:41:19;34.92;;;18.38;;
65545;SDS011;52177;55.968;37.498;2022-12-18T20:41:51;33.65;;;17.98;;
65545;SDS011;52177;55.968;37.498;2022-12-18T20:42:22;38.30;;;20.63;;
65545;SDS011;52177;55.968;37.498;2022-12-18T20:42:52;40.08;;;22.92;;
65545;SDS011;52177;55.968;37.498;2022-12-18T20:43:22;33.00;;;16.95;;
65545;SDS011;52177;55.968;37.498;2022-12-18T20:43:53;23.67;;;13.75;;
65545;SDS011;52177;55.968;37.498;2022-12-18T20:44:23;20.60;;;11.23;;
65545;SDS011;52177;55.968;37.498;2022-12-18T20:44:53;17.42;;;11.07;;
65545;SDS011;52177;55.968;37.498;2022-12-18T20:45:24;15.70;;;9.75;;
65545;SDS011;52177;55.968;37.498;2022-12-18T20:46:04;18.25;;;10.70;;
65545;SDS011;52177;55.968;37.498;2022-12-18T20:46:37;20.17;;;10.73;;
65545;SDS011;52177;55.968;37.498;2022-12-18T20:47:07;18.52;;;11.90;;
65545;SDS011;52177;55.968;37.498;2022-12-18T20:47:37;18.63;;;11.05;;
65545;SDS011;52177;55.968;37.498;2022-12-18T20:48:08;23.08;;;13.73;;
65545;SDS011;52177;55.968;37.498;2022-12-18T20:48:38;21.83;;;12.85;;
65545;SDS011;52177;55.968;37.498;2022-12-18T20:49:08;17.17;;;10.10;;
65545;SDS011;52177;55.968;37.498;2022-12-18T20:49:39;15.00;;;9.02;;
65545;SDS011;52177;55.968;37.498;2022-12-18T20:50:10;16.77;;;10.25;;
65545;SDS011;52177;55.968;37.498;2022-12-18T20:50:40;18.25;;;10.82;;
65545;SDS011;52177;55.968;37.498;2022-12-18T20:51:13;18.83;;;9.55;;
65545;SDS011;52177;55.968;37.498;2022-12-18T20:51:48;16.10;;;9.48;;
65545;SDS011;52177;55.968;37.498;2022-12-18T20:52:20;18.02;;;10.40;;
65545;SDS011;52177;55.968;37.498;2022-12-18T20:52:51;18.17;;;10.40;;
65545;SDS011;52177;55.968;37.498;2022-12-18T20:53:21;15.77;;;9.32;;
65545;SDS011;52177;55.968;37.498;2022-12-18T20:53:53;18.40;;;10.45;;
65545;SDS011;52177;55.968;37.498;2022-12-18T20:54:25;19.98;;;11.10;;
65545;SDS011;52177;55.968;37.498;2022-12-18T20:54:56;18.70;;;10.40;;
65545;SDS011;52177;55.968;37.498;2022-12-18T20:55:27;17.52;;;10.93;;
65545;SDS011;52177;55.968;37.498;2022-12-18T20:55:58;20.42;;;11.07;;
65545;SDS011;52177;55.968;37.498;2022-12-18T20:56:28;17.40;;;10.63;;
65545;SDS011;52177;55.968;37.498;2022-12-18T20:57:02;16.77;;;11.02;;
65545;SDS011;52177;55.968;37.498;2022-12-18T20:57:32;20.00;;;9.80;;
65545;SDS011;52177;55.968;37.498;2022-12-18T20:58:03;16.15;;;9.35;;
65545;SDS011;52177;55.968;37.498;2022-12-18T20:58:33;17.00;;;10.05;;
65545;SDS011;52177;55.968;37.498;2022-12-18T20:59:04;17.30;;;9.48;;
65545;SDS011;52177;55.968;37.498;2022-12-18T20:59:34;17.23;;;10.13;;
65545;SDS011;52177;55.968;37.498;2022-12-18T21:00:05;15.32;;;9.95;;
65545;SDS011;52177;55.968;37.498;2022-12-18T21:00:36;17.42;;;10.10;;
65545;SDS011;52177;55.968;37.498;2022-12-18T21:01:08;14.80;;;10.20;;
65545;SDS011;52177;55.968;37.498;2022-12-18T21:01:41;18.55;;;10.55;;
65545;SDS011;52177;55.968;37.498;2022-12-18T21:02:12;17.63;;;11.10;;
65545;SDS011;52177;55.968;37.498;2022-12-18T21:02:43;15.07;;;9.55;;
65545;SDS011;52177;55.968;37.498;2022-12-18T21:03:13;18.98;;;10.15;;
65545;SDS011;52177;55.968;37.498;2022-12-18T21:03:44;16.90;;;10.55;;
65545;SDS011;52177;55.968;37.498;2022-12-18T21:04:15;17.85;;;10.15;;
65545;SDS011;52177;55.968;37.498;2022-12-18T21:04:48;15.48;;;9.65;;
65545;SDS011;52177;55.968;37.498;2022-12-18T21:05:19;17.25;;;10.00;;
65545;SDS011;52177;55.968;37.498;2022-12-18T21:05:49;17.30;;;10.30;;
65545;SDS011;52177;55.968;37.498;2022-12-18T21:06:20;17.50;;;10.60;;
65545;SDS011;52177;55.968;37.498;2022-12-18T21:06:52;15.15;;;9.90;;
65545;SDS011;52177;55.968;37.498;2022-12-18T21:07:23;18.33;;;10.50;;
65545;SDS011;52177;55.968;37.498;2022-12-18T21:07:53;17.73;;;10.32;;
65545;SDS011;52177;55.968;37.498;2022-12-18T21:08:24;17.70;;;10.07;;
65545;SDS011;52177;55.968;37.498;2022-12-18T21:08:54;16.88;;;10.05;;
65545;SDS011;52177;55.968;37.498;2022-12-18T21:09:25;18.60;;;11.88;;
65545;SDS011;52177;55.968;37.498;2022-12-18T21:09:55;18.38;;;11.30;;
65545;SDS011;52177;55.968;37.498;2022-12-18T21:10:25;18.10;;;10.52;;
65545;SDS011;52177;55.968;37.498;2022-12-18T21:10:56;16.60;;;10.32;;
65545;SDS011;52177;55.968;37.498;2022-12-18T21:12:00;14.10;;;8.68;;
65545;SDS011;52177;55.968;37.498;2022-12-18T21:12:50;16.45;;;9.15;;
65545;SDS011;52177;55.968;37.498;2022-12-18T21:13:20;13.93;;;8.73;;
65545;SDS011;52177;55.968;37.498;2022-12-18T21:13:51;13.30;;;8.60;;
65545;SDS011;52177;55.968;37.498;2022-12-18T21:14:25;15.32;;;10.07;;
65545;SDS011;52177;55.968;37.498;2022-12-18T21:14:57;15.57;;;9.15;;
65545;SDS011;52177;55.968;37.498;2022-12-18T21:15:31;14.65;;;8.77;;
65545;SDS011;52177;55.968;37.498;2022-12-18T21:16:01;15.43;;;9.50;;
65545;SDS011;52177;55.968;37.498;2022-12-18T21:16:32;14.02;;;8.88;;
65545;SDS011;52177;55.968;37.498;2022-12-18T21:17:02;14.32;;;8.77;;
65545;SDS011;52177;55.968;37.498;2022-12-18T21:17:33;14.32;;;9.02;;
65545;SDS011;52177;55.968;37.498;2022-12-18T21:18:04;14.13;;;9.05;;
65545;SDS011;52177;55.968;37.498;2022-12-18T21:18:35;13.73;;;9.45;;
65545;SDS011;52177;55.968;37.498;2022-12-18T21:19:05;14.15;;;9.23;;
65545;SDS011;52177;55.968;37.498;2022-12-18T21:19:36;14.50;;;8.77;;
65545;SDS011;52177;55.968;37.498;2022-12-18T21:20:07;14.70;;;9.40;;
65545;SDS011;52177;55.968;37.498;2022-12-18T21:20:37;15.93;;;9.20;;
65545;SDS011;52177;55.968;37.498;2022-12-18T21:21:08;13.75;;;9.45;;
65545;SDS011;52177;55.968;37.498;2022-12-18T21:21:38;14.70;;;9.25;;
65545;SDS011;52177;55.968;37.498;2022-12-18T21:22:09;15.55;;;9.75;;
65545;SDS011;52177;55.968;37.498;2022-12-18T21:22:40;14.05;;;9.32;;
65545;SDS011;52177;55.968;37.498;2022-12-18T21:23:10;14.85;;;9.63;;
65545;SDS011;52177;55.968;37.498;2022-12-18T21:23:41;14.77;;;9.15;;
65545;SDS011;52177;55.968;37.498;2022-12-18T21:24:11;16.05;;;9.32;;
65545;SDS011;52177;55.968;37.498;2022-12-18T21:24:42;13.18;;;8.50;;
65545;SDS011;52177;55.968;37.498;2022-12-18T21:25:12;13.98;;;9.52;;
65545;SDS011;52177;55.968;37.498;2022-12-18T21:25:43;15.88;;;8.88;;
65545;SDS011;52177;55.968;37.498;2022-12-18T21:26:15;16.58;;;9.90;;
65545;SDS011;52177;55.968;37.498;2022-12-18T21:26:47;12.57;;;8.23;;
65545;SDS011;52177;55.968;37.498;2022-12-18T21:27:18;14.13;;;9.38;;
65545;SDS011;52177;55.968;37.498;2022-12-18T21:27:48;13.27;;;8.70;;
65545;SDS011;52177;55.968;37.498;2022-12-18T21:28:19;11.23;;;7.63;;
65545;SDS011;52177;55.968;37.498;2022-12-18T21:28:56;12.90;;;9.65;;
65545;SDS011;52177;55.968;37.498;2022-12-18T21:29:28;11.52;;;7.75;;
65545;SDS011;52177;55.968;37.498;2022-12-18T21:29:58;11.55;;;7.95;;
65545;SDS011;52177;55.968;37.498;2022-12-18T21:30:29;13.88;;;8.23;;
65545;SDS011;52177;55.968;37.498;2022-12-18T21:30:59;13.45;;;8.02;;
65545;SDS011;52177;55.968;37.498;2022-12-18T21:31:30;12.77;;;7.90;;
65545;SDS011;52177;55.968;37.498;2022-12-18T21:32:04;12.45;;;8.27;;
65545;SDS011;52177;55.968;37.498;2022-12-18T21:32:34;11.23;;;7.90;;
65545;SDS011;52177;55.968;37.498;2022-12-18T21:33:05;12.30;;;8.65;;
65545;SDS011;52177;55.968;37.498;2022-12-18T21:33:35;12.45;;;8.35;;
65545;SDS011;52177;55.968;37.498;2022-12-18T21:34:06;13.15;;;8.10;;
65545;SDS011;52177;55.968;37.498;2022-12-18T21:34:37;10.20;;;7.65;;
65545;SDS011;52177;55.968;37.498;2022-12-18T21:35:07;11.50;;;8.05;;
65545;SDS011;52177;55.968;37.498;2022-12-18T21:35:38;10.98;;;7.35;;
65545;SDS011;52177;55.968;37.498;2022-12-18T21:36:08;10.70;;;6.47;;
65545;SDS011;52177;55.968;37.498;2022-12-18T21:36:39;9.98;;;7.65;;
65545;SDS011;52177;55.968;37.498;2022-12-18T21:37:09;11.88;;;7.55;;
65545;SDS011;52177;55.968;37.498;2022-12-18T21:37:40;9.13;;;6.88;;
65545;SDS011;52177;55.968;37.498;2022-12-18T21:38:10;10.00;;;6.65;;
65545;SDS011;52177;55.968;37.498;2022-12-18T21:38:40;11.75;;;7.82;;
65545;SDS011;52177;55.968;37.498;2022-12-18T21:39:11;10.95;;;6.78;;
65545;SDS011;52177;55.968;37.498;2022-12-18T21:39:42;9.27;;;6.50;;
65545;SDS011;52177;55.968;37.498;2022-12-18T21:40:12;10.90;;;7.80;;
65545;SDS011;52177;55.968;37.498;2022-12-18T21:40:42;10.00;;;6.82;;
65545;SDS011;52177;55.968;37.498;2022-12-18T21:41:13;10.63;;;7.20;;
65545;SDS011;52177;55.968;37.498;2022-12-18T21:42:02;9.10;;;6.75;;
65545;SDS011;52177;55.968;37.498;2022-12-18T21:42:51;11.18;;;7.60;;
65545;SDS011;52177;55.968;37.498;2022-12-18T21:43:40;10.50;;;6.80;;
65545;SDS011;52177;55.968;37.498;2022-12-18T21:44:29;10.30;;;6.75;;
65545;SDS011;52177;55.968;37.498;2022-12-18T21:45:00;11.68;;;8.13;;
65545;SDS011;52177;55.968;37.498;2022-12-18T21:45:30;12.27;;;8.02;;
65545;SDS011;52177;55.968;37.498;2022-12-18T21:46:01;11.25;;;7.70;;
65545;SDS011;52177;55.968;37.498;2022-12-18T21:46:35;9.77;;;6.65;;
65545;SDS011;52177;55.968;37.498;2022-12-18T21:47:07;14.88;;;9.43;;
65545;SDS011;52177;55.968;37.498;2022-12-18T21:47:37;13.55;;;9.38;;
65545;SDS011;52177;55.968;37.498;2022-12-18T21:48:07;22.35;;;13.77;;
65545;SDS011;52177;55.968;37.498;2022-12-18T21:48:38;17.80;;;11.38;;
65545;SDS011;52177;55.968;37.498;2022-12-18T21:49:08;17.13;;;10.85;;
65545;SDS011;52177;55.968;37.498;2022-12-18T21:49:40;11.50;;;8.80;;
65545;SDS011;52177;55.968;37.498;2022-12-18T21:50:11;11.85;;;8.02;;
65545;SDS011;52177;55.968;37.498;2022-12-18T21:50:41;11.18;;;7.85;;
65545;SDS011;52177;55.968;37.498;2022-12-18T21:51:12;11.65;;;7.75;;
65545;SDS011;52177;55.968;37.498;2022-12-18T21:51:43;10.77;;;7.60;;
65545;SDS011;52177;55.968;37.498;2022-12-18T21:52:14;10.10;;;7.22;;
65545;SDS011;52177;55.968;37.498;2022-12-18T21:52:44;9.43;;;7.22;;
65545;SDS011;52177;55.968;37.498;2022-12-18T21:53:14;8.55;;;6.88;;
65545;SDS011;52177;55.968;37.498;2022-12-18T21:53:44;10.43;;;7.38;;
65545;SDS011;52177;55.968;37.498;2022-12-18T21:54:15;10.35;;;7.50;;
65545;SDS011;52177;55.968;37.498;2022-12-18T21:54:46;12.63;;;8.27;;
65545;SDS011;52177;55.968;37.498;2022-12-18T21:55:16;12.10;;;8.25;;
65545;SDS011;52177;55.968;37.498;2022-12-18T21:55:55;14.52;;;10.10;;
65545;SDS011;52177;55.968;37.498;2022-12-18T21:57:32;9.18;;;6.25;;
65545;SDS011;52177;55.968;37.498;2022-12-18T21:58:03;10.00;;;6.60;;
65545;SDS011;52177;55.968;37.498;2022-12-18T21:58:33;9.38;;;5.15;;
65545;SDS011;52177;55.968;37.498;2022-12-18T21:59:03;9.32;;;6.43;;
65545;SDS011;52177;55.968;37.498;2022-12-18T21:59:35;9.40;;;6.38;;
65545;SDS011;52177;55.968;37.498;2022-12-18T22:00:09;9.48;;;6.90;;
65545;SDS011;52177;55.968;37.498;2022-12-18T22:00:41;8.73;;;7.15;;
65545;SDS011;52177;55.968;37.498;2022-12-18T22:01:11;7.63;;;5.97;;
65545;SDS011;52177;55.968;37.498;2022-12-18T22:01:42;9.32;;;6.78;;
65545;SDS011;52177;55.968;37.498;2022-12-18T22:02:16;9.38;;;7.55;;
65545;SDS011;52177;55.968;37.498;2022-12-18T22:02:49;10.05;;;7.30;;
65545;SDS011;52177;55.968;37.498;2022-12-18T22:03:19;10.57;;;7.40;;
65545;SDS011;52177;55.968;37.498;2022-12-18T22:03:50;9.95;;;7.65;;
65545;SDS011;52177;55.968;37.498;2022-12-18T22:04:20;8.45;;;6.05;;
65545;SDS011;52177;55.968;37.498;2022-12-18T22:04:51;8.57;;;6.30;;
65545;SDS011;52177;55.968;37.498;2022-12-18T22:05:21;8.85;;;6.45;;
65545;SDS011;52177;55.968;37.498;2022-12-18T22:05:56;8.15;;;5.65;;
65545;SDS011;52177;55.968;37.498;2022-12-18T22:06:27;7.80;;;6.07;;
65545;SDS011;52177;55.968;37.498;2022-12-18T22:06:57;8.18;;;6.50;;
65545;SDS011;52177;55.968;37.498;2022-12-18T22:07:30;9.52;;;6.60;;
65545;SDS011;52177;55.968;37.498;2022-12-18T22:08:01;9.35;;;6.68;;
65545;SDS011;52177;55.968;37.498;2022-12-18T22:08:31;10.20;;;6.88;;
65545;SDS011;52177;55.968;37.498;2022-12-18T22:09:02;10.15;;;7.05;;
65545;SDS011;52177;55.968;37.498;2022-12-18T22:09:33;9.95;;;6.85;;
65545;SDS011;52177;55.968;37.498;2022-12-18T22:10:04;9.25;;;7.00;;
65545;SDS011;52177;55.968;37.498;2022-12-18T22:10:35;12.20;;;7.93;;
65545;SDS011;52177;55.968;37.498;2022-12-18T22:11:05;21.13;;;11.95;;
65545;SDS011;52177;55.968;37.498;2022-12-18T22:11:36;12.40;;;8.40;;
65545;SDS011;52177;55.968;37.498;2022-12-18T22:12:06;7.60;;;6.40;;
65545;SDS011;52177;55.968;37.498;2022-12-18T22:12:40;9.25;;;7.00;;
65545;SDS011;52177;55.968;37.498;2022-12-18T22:13:11;7.82;;;6.32;;
65545;SDS011;52177;55.968;37.498;2022-12-18T22:13:41;10.05;;;7.13;;
65545;SDS011;52177;55.968;37.498;2022-12-18T22:14:11;9.63;;;7.03;;
65545;SDS011;52177;55.968;37.498;2022-12-18T22:14:43;10.40;;;8.05;;
65545;SDS011;52177;55.968;37.498;2022-12-18T22:15:14;9.60;;;6.55;;
65545;SDS011;52177;55.968;37.498;2022-12-18T22:15:44;15.38;;;9.18;;
65545;SDS011;52177;55.968;37.498;2022-12-18T22:16:14;13.35;;;8.23;;
65545;SDS011;52177;55.968;37.498;2022-12-18T22:16:45;19.55;;;11.38;;
65545;SDS011;52177;55.968;37.498;2022-12-18T22:17:15;13.07;;;8.70;;
65545;SDS011;52177;55.968;37.498;2022-12-18T22:17:46;13.07;;;8.30;;
65545;SDS011;52177;55.968;37.498;2022-12-18T22:18:16;8.75;;;6.75;;
65545;SDS011;52177;55.968;37.498;2022-12-18T22:18:46;10.45;;;6.63;;
65545;SDS011;52177;55.968;37.498;2022-12-18T22:19:17;8.65;;;6.75;;
65545;SDS011;52177;55.968;37.498;2022-12-18T22:19:48;9.15;;;6.43;;
65545;SDS011;52177;55.968;37.498;2022-12-18T22:20:18;9.13;;;7.10;;
65545;SDS011;52177;55.968;37.498;2022-12-18T22:20:58;9.57;;;7.22;;
65545;SDS011;52177;55.968;37.498;2022-12-18T22:21:36;9.45;;;6.68;;
65545;SDS011;52177;55.968;37.498;2022-12-18T22:22:08;8.07;;;5.82;;
65545;SDS011;52177;55.968;37.498;2022-12-18T22:22:38;9.60;;;6.88;;
65545;SDS011;52177;55.968;37.498;2022-12-18T22:23:08;10.20;;;6.85;;
65545;SDS011;52177;55.968;37.498;2022-12-18T22:23:39;10.70;;;7.30;;
65545;SDS011;52177;55.968;37.498;2022-12-18T22:24:13;8.57;;;6.47;;
65545;SDS011;52177;55.968;37.498;2022-12-18T22:24:45;8.65;;;6.63;;
65545;SDS011;52177;55.968;37.498;2022-12-18T22:25:16;8.25;;;6.47;;
65545;SDS011;52177;55.968;37.498;2022-12-18T22:25:47;8.38;;;6.68;;
65545;SDS011;52177;55.968;37.498;2022-12-18T22:26:17;9.63;;;6.88;;
65545;SDS011;52177;55.968;37.498;2022-12-18T22:26:48;9.07;;;6.70;;
65545;SDS011;52177;55.968;37.498;2022-12-18T22:27:20;9.23;;;6.72;;
65545;SDS011;52177;55.968;37.498;2022-12-18T22:27:50;9.32;;;6.72;;
65545;SDS011;52177;55.968;37.498;2022-12-18T22:28:39;9.52;;;6.18;;
65545;SDS011;52177;55.968;37.498;2022-12-18T22:29:28;9.38;;;6.32;;
65545;SDS011;52177;55.968;37.498;2022-12-18T22:30:17;8.73;;;6.05;;
65545;SDS011;52177;55.968;37.498;2022-12-18T22:30:48;7.63;;;6.10;;
65545;SDS011;52177;55.968;37.498;2022-12-18T22:31:18;8.52;;;6.25;;
65545;SDS011;52177;55.968;37.498;2022-12-18T22:31:48;9.95;;;7.10;;
65545;SDS011;52177;55.968;37.498;2022-12-18T22:32:19;10.90;;;7.75;;
65545;SDS011;52177;55.968;37.498;2022-12-18T22:32:49;13.77;;;9.23;;
65545;SDS011;52177;55.968;37.498;2022-12-18T22:33:19;9.63;;;7.15;;
65545;SDS011;52177;55.968;37.498;2022-12-18T22:33:50;10.38;;;7.80;;
65545;SDS011;52177;55.968;37.498;2022-12-18T22:34:20;11.27;;;7.50;;
65545;SDS011;52177;55.968;37.498;2022-12-18T22:34:50;12.57;;;8.88;;
65545;SDS011;52177;55.968;37.498;2022-12-18T22:35:21;10.40;;;7.68;;
65545;SDS011;52177;55.968;37.498;2022-12-18T22:35:51;7.55;;;6.25;;
65545;SDS011;52177;55.968;37.498;2022-12-18T22:36:21;8.93;;;6.57;;
65545;SDS011;52177;55.968;37.498;2022-12-18T22:36:52;8.68;;;6.82;;
65545;SDS011;52177;55.968;37.498;2022-12-18T22:37:22;9.13;;;7.38;;
65545;SDS011;52177;55.968;37.498;2022-12-18T22:37:53;10.65;;;7.45;;
65545;SDS011;52177;55.968;37.498;2022-12-18T22:38:23;9.40;;;6.82;;
65545;SDS011;52177;55.968;37.498;2022-12-18T22:38:53;12.35;;;8.77;;
65545;SDS011;52177;55.968;37.498;2022-12-18T22:39:25;8.65;;;6.82;;
65545;SDS011;52177;55.968;37.498;2022-12-18T22:40:00;10.50;;;7.45;;
65545;SDS011;52177;55.968;37.498;2022-12-18T22:40:30;10.88;;;6.75;;
65545;SDS011;52177;55.968;37.498;2022-12-18T22:41:00;9.48;;;6.65;;
65545;SDS011;52177;55.968;37.498;2022-12-18T22:41:31;10.27;;;7.82;;
65545;SDS011;52177;55.968;37.498;2022-12-18T22:42:04;9.60;;;7.93;;
65545;SDS011;52177;55.968;37.498;2022-12-18T22:42:34;11.10;;;7.80;;